createdAt,value
2023-01-22T00:00:17.098Z,78.00
2023-01-22T00:02:45.082Z,76.92
2023-01-22T00:05:14.216Z,77.28
2023-01-22T00:07:42.166Z,77.08
2023-01-22T00:10:12.031Z,76.92
2023-01-22T00:12:39.816Z,77.38
2023-01-22T00:15:08.839Z,76.38
2023-01-22T00:17:37.736Z,76.32
2023-01-22T00:20:06.749Z,76.62
2023-01-22T00:22:36.860Z,74.48
2023-01-22T00:25:05.354Z,73.95
2023-01-22T00:27:33.058Z,77.08
2023-01-22T00:30:00.877Z,77.88
2023-01-22T00:32:28.567Z,78.20
2023-01-22T00:34:56.289Z,76.29
2023-01-22T00:37:24.058Z,74.81
2023-01-22T00:39:53.207Z,76.38
2023-01-22T00:42:20.920Z,77.56
2023-01-22T00:44:48.621Z,77.12
2023-01-22T00:47:16.444Z,76.46
2023-01-22T00:49:44.212Z,75.87
2023-01-22T00:52:12.237Z,76.40
2023-01-22T00:54:40.000Z,76.18
2023-01-22T00:57:09.167Z,75.54
2023-01-22T00:59:36.869Z,74.33
2023-01-22T01:02:06.551Z,77.00
2023-01-22T01:04:34.463Z,74.58
2023-01-22T01:07:02.201Z,75.91
2023-01-22T01:09:30.032Z,77.87
2023-01-22T01:11:57.754Z,76.75
2023-01-22T01:14:26.964Z,77.95
2023-01-22T01:16:56.734Z,77.70
2023-01-22T01:19:24.576Z,76.74
2023-01-22T01:21:52.540Z,76.59
2023-01-22T01:24:20.223Z,78.23
2023-01-22T01:26:48.015Z,78.71
2023-01-22T01:29:16.001Z,77.38
2023-01-22T01:31:45.804Z,74.83
2023-01-22T01:34:13.852Z,77.51
2023-01-22T01:36:49.709Z,76.87
2023-01-22T01:39:17.876Z,77.31
2023-01-22T01:41:45.971Z,77.82
2023-01-22T01:44:15.724Z,76.05
2023-01-22T01:46:48.974Z,75.73
2023-01-22T01:49:21.057Z,78.47
2023-01-22T01:51:49.790Z,78.45
2023-01-22T01:54:18.297Z,79.12
2023-01-22T01:56:51.491Z,77.95
2023-01-22T01:59:22.071Z,80.18
2023-01-22T02:01:54.858Z,80.78
2023-01-22T02:04:24.707Z,78.19
2023-01-22T02:06:52.511Z,79.51
2023-01-22T02:09:20.445Z,79.84
2023-01-22T02:11:48.595Z,79.75
2023-01-22T02:14:20.230Z,79.20
2023-01-22T02:16:48.042Z,78.88
2023-01-22T02:19:17.326Z,78.13
2023-01-22T02:21:46.603Z,79.92
2023-01-22T02:24:17.051Z,78.98
2023-01-22T02:26:46.750Z,79.34
2023-01-22T02:29:15.567Z,82.21
2023-01-22T02:31:43.742Z,84.95
2023-01-22T02:34:12.336Z,87.16
2023-01-22T02:36:41.176Z,86.90
2023-01-22T02:39:10.372Z,84.14
2023-01-22T02:41:38.168Z,83.41
2023-01-22T02:44:07.407Z,82.66
2023-01-22T02:46:35.561Z,82.02
2023-01-22T02:49:03.767Z,81.71
2023-01-22T02:51:31.557Z,82.36
2023-01-22T02:53:59.336Z,82.50
2023-01-22T02:56:28.489Z,79.86
2023-01-22T02:58:56.181Z,81.41
2023-01-22T03:01:25.674Z,80.92
2023-01-22T03:03:55.367Z,80.73
2023-01-22T03:06:25.059Z,81.95
2023-01-22T03:08:55.325Z,82.09
2023-01-22T03:11:24.080Z,81.43
2023-01-22T03:14:11.127Z,81.49
2023-01-22T03:16:56.434Z,78.75
2023-01-22T03:19:42.457Z,78.36
2023-01-22T03:22:10.922Z,79.54
2023-01-22T03:24:38.669Z,78.80
2023-01-22T03:27:06.811Z,78.43
2023-01-22T03:29:38.315Z,78.02
2023-01-22T03:32:07.155Z,78.85
2023-01-22T03:34:35.200Z,77.79
2023-01-22T03:37:03.560Z,82.06
2023-01-22T03:39:32.544Z,84.75
2023-01-22T03:42:00.368Z,87.02
2023-01-22T03:44:28.172Z,86.31
2023-01-22T03:46:57.531Z,85.15
2023-01-22T03:49:25.291Z,83.36
2023-01-22T03:51:53.124Z,81.93
2023-01-22T03:54:20.925Z,81.58
2023-01-22T03:56:48.665Z,82.91
2023-01-22T03:59:16.440Z,83.05
2023-01-22T04:01:44.357Z,82.82
2023-01-22T04:04:13.534Z,84.48
2023-01-22T04:06:41.333Z,82.86
2023-01-22T04:09:09.037Z,80.97
2023-01-22T04:11:36.878Z,80.56
2023-01-22T04:14:04.581Z,79.78
2023-01-22T04:16:32.340Z,80.91
2023-01-22T04:19:00.111Z,79.16
2023-01-22T04:21:29.231Z,78.98
2023-01-22T04:23:57.514Z,79.52
2023-01-22T04:26:25.440Z,78.59
2023-01-22T04:28:53.188Z,80.35
2023-01-22T04:31:21.118Z,79.09
2023-01-22T04:33:49.015Z,77.63
2023-01-22T04:36:18.086Z,78.25
2023-01-22T04:38:47.225Z,78.06
2023-01-22T04:41:15.017Z,80.68
2023-01-22T04:43:42.719Z,81.20
2023-01-22T04:46:10.577Z,80.33
2023-01-22T04:48:38.401Z,80.00
2023-01-22T04:51:06.430Z,78.28
2023-01-22T04:53:34.239Z,79.51
2023-01-22T04:56:03.338Z,79.03
2023-01-22T04:58:31.124Z,81.84
2023-01-22T05:00:59.200Z,80.16
2023-01-22T05:03:26.991Z,79.97
2023-01-22T05:05:54.720Z,80.20
2023-01-22T05:08:22.600Z,81.70
2023-01-22T05:10:50.383Z,81.74
2023-01-22T05:13:19.458Z,81.66
2023-01-22T05:15:47.220Z,83.21
2023-01-22T05:18:14.978Z,84.27
2023-01-22T05:20:42.758Z,84.12
2023-01-22T05:23:10.522Z,86.01
2023-01-22T05:25:38.336Z,87.63
2023-01-22T05:28:06.526Z,87.59
2023-01-22T05:30:35.837Z,87.02
2023-01-22T05:33:03.639Z,83.89
2023-01-22T05:35:31.485Z,84.91
2023-01-22T05:37:59.215Z,83.27
2023-01-22T05:40:27.033Z,85.76
2023-01-22T05:42:55.108Z,86.95
2023-01-22T05:45:22.954Z,87.08
2023-01-22T05:47:54.325Z,84.61
2023-01-22T05:50:22.751Z,83.72
2023-01-22T05:52:55.426Z,82.98
2023-01-22T05:55:23.328Z,81.15
2023-01-22T05:57:51.281Z,83.07
2023-01-22T06:00:19.909Z,81.36
2023-01-22T06:02:48.590Z,81.29
2023-01-22T06:05:17.927Z,84.95
2023-01-22T06:07:45.636Z,84.61
2023-01-22T06:10:13.509Z,84.36
2023-01-22T06:12:41.234Z,83.03
2023-01-22T06:15:10.333Z,81.49
2023-01-22T06:17:38.094Z,80.98
2023-01-22T06:20:06.716Z,79.70
2023-01-22T06:22:35.868Z,81.33
2023-01-22T06:25:03.910Z,81.91
2023-01-22T06:27:31.656Z,81.00
2023-01-22T06:29:59.434Z,80.36
2023-01-22T06:32:27.328Z,81.47
2023-01-22T06:34:55.060Z,78.95
2023-01-22T06:37:22.952Z,78.66
2023-01-22T06:39:52.214Z,79.54
2023-01-22T06:42:20.039Z,87.71
2023-01-22T06:44:47.880Z,87.77
2023-01-22T06:47:15.669Z,87.88
2023-01-22T06:49:43.368Z,85.67
2023-01-22T06:52:11.116Z,87.43
2023-01-22T06:54:38.887Z,86.47
2023-01-22T06:57:08.101Z,88.78
2023-01-22T06:59:37.180Z,89.53
2023-01-22T07:02:05.253Z,87.80
2023-01-22T07:04:33.105Z,85.24
2023-01-22T07:07:00.802Z,85.35
2023-01-22T07:09:28.479Z,83.57
2023-01-22T07:11:57.415Z,83.98
2023-01-22T07:14:36.576Z,84.16
2023-01-22T07:17:05.137Z,83.99
2023-01-22T07:19:33.127Z,85.89
2023-01-22T07:22:01.088Z,83.62
2023-01-22T07:24:28.793Z,84.37
2023-01-22T07:26:56.580Z,84.55
2023-01-22T07:29:24.350Z,82.21
2023-01-22T07:31:53.503Z,83.99
2023-01-22T07:34:21.468Z,81.09
2023-01-22T07:36:49.283Z,78.67
2023-01-22T07:39:17.124Z,78.79
2023-01-22T07:41:44.982Z,76.46
2023-01-22T07:44:13.243Z,77.56
2023-01-22T07:46:41.150Z,75.74
2023-01-22T07:49:11.760Z,75.88
2023-01-22T07:51:39.573Z,76.88
2023-01-22T07:54:07.327Z,78.49
2023-01-22T07:56:35.073Z,77.14
2023-01-22T07:59:02.843Z,77.80
2023-01-22T08:01:30.660Z,78.24
2023-01-22T08:03:58.439Z,78.23
2023-01-22T08:06:27.621Z,78.31
2023-01-22T08:08:55.321Z,78.17
2023-01-22T08:11:23.127Z,78.54
2023-01-22T08:13:50.845Z,79.27
2023-01-22T08:16:18.698Z,80.09
2023-01-22T08:18:46.479Z,78.87
2023-01-22T08:21:14.598Z,79.57
2023-01-22T08:23:47.546Z,78.80
2023-01-22T08:26:16.695Z,79.35
2023-01-22T08:28:44.524Z,76.95
2023-01-22T08:31:26.314Z,76.23
2023-01-22T08:33:55.442Z,76.53
2023-01-22T08:36:23.271Z,75.56
2023-01-22T08:38:52.390Z,75.90
2023-01-22T08:41:20.163Z,75.90
2023-01-22T08:43:47.855Z,75.27
2023-01-22T08:46:15.794Z,79.26
2023-01-22T08:48:44.352Z,81.79
2023-01-22T08:51:12.483Z,83.67
2023-01-22T08:53:40.315Z,83.78
2023-01-22T08:56:09.758Z,83.55
2023-01-22T08:58:37.479Z,80.20
2023-01-22T09:01:05.578Z,80.44
2023-01-22T09:03:33.317Z,80.71
2023-01-22T09:06:01.107Z,81.32
2023-01-22T09:08:28.871Z,82.45
2023-01-22T09:10:56.650Z,80.88
2023-01-22T09:13:25.790Z,78.81
2023-01-22T09:15:58.519Z,79.63
2023-01-22T09:18:26.815Z,82.58
2023-01-22T09:20:54.593Z,82.94
2023-01-22T09:23:22.601Z,83.71
2023-01-22T09:25:50.412Z,81.63
2023-01-22T09:28:18.156Z,80.87
2023-01-22T09:30:47.305Z,80.44
2023-01-22T09:33:15.132Z,81.20
2023-01-22T09:35:42.864Z,80.75
2023-01-22T09:38:14.073Z,80.51
2023-01-22T09:40:46.524Z,79.16
2023-01-22T09:43:25.780Z,80.07
2023-01-22T09:45:57.978Z,79.35
2023-01-22T09:48:33.058Z,78.47
2023-01-22T09:51:01.097Z,78.34
2023-01-22T09:53:30.828Z,78.15
2023-01-22T09:55:59.225Z,77.41
2023-01-22T09:58:27.978Z,77.51
2023-01-22T10:01:00.542Z,77.59
2023-01-22T10:03:33.499Z,76.88
2023-01-22T10:06:05.629Z,77.17
2023-01-22T10:08:35.667Z,77.32
2023-01-22T10:11:04.140Z,76.81
2023-01-22T10:13:34.940Z,77.95
2023-01-22T10:16:04.764Z,78.05
2023-01-22T10:18:40.870Z,77.88
2023-01-22T10:21:18.712Z,78.61
2023-01-22T10:23:47.031Z,78.42
2023-01-22T10:26:18.727Z,78.41
2023-01-22T10:28:49.079Z,79.92
2023-01-22T10:31:26.270Z,80.51
2023-01-22T10:33:59.452Z,79.00
2023-01-22T10:36:27.518Z,78.90
2023-01-22T10:39:12.153Z,78.84
2023-01-22T10:41:40.955Z,79.42
2023-01-22T10:44:10.441Z,78.50
2023-01-22T10:46:39.669Z,77.34
2023-01-22T10:49:08.426Z,77.00
2023-01-22T10:51:38.756Z,77.57
2023-01-22T10:54:20.819Z,77.96
2023-01-22T10:56:49.755Z,77.71
2023-01-22T10:59:22.998Z,76.81
2023-01-22T11:01:58.448Z,77.29
2023-01-22T11:04:28.401Z,76.73
2023-01-22T11:06:59.075Z,78.38
2023-01-22T11:09:33.782Z,78.12
2023-01-22T11:12:10.758Z,77.16
2023-01-22T11:14:40.489Z,76.54
2023-01-22T11:17:18.996Z,77.45
2023-01-22T11:19:55.162Z,75.98
2023-01-22T11:22:27.716Z,74.65
2023-01-22T11:24:55.499Z,73.20
2023-01-22T11:27:45.871Z,75.25
2023-01-22T11:30:38.555Z,73.57
2023-01-22T11:33:21.053Z,73.75
2023-01-22T11:35:54.744Z,75.43
2023-01-22T11:38:30.928Z,75.24
2023-01-22T11:41:14.349Z,74.10
2023-01-22T11:43:56.674Z,74.61
2023-01-22T11:46:39.006Z,73.54
2023-01-22T11:49:19.316Z,73.97
2023-01-22T11:51:56.561Z,72.12
2023-01-22T11:54:35.189Z,72.04
2023-01-22T11:57:18.041Z,72.32
2023-01-22T12:00:04.515Z,74.09
2023-01-22T12:02:50.507Z,73.15
2023-01-22T12:05:33.197Z,72.52
2023-01-22T12:08:14.700Z,72.60
2023-01-22T12:10:57.494Z,70.60
2023-01-22T12:13:43.822Z,71.92
2023-01-22T12:16:22.358Z,71.02
2023-01-22T12:19:12.994Z,71.30
2023-01-22T12:21:54.118Z,71.44
2023-01-22T12:24:27.919Z,71.93
2023-01-22T12:27:02.434Z,73.86
2023-01-22T12:29:34.009Z,72.48
2023-01-22T12:32:08.959Z,72.44
2023-01-22T12:34:42.888Z,72.08
2023-01-22T12:37:17.033Z,72.71
2023-01-22T12:39:51.711Z,72.04
2023-01-22T12:42:31.982Z,73.03
2023-01-22T12:45:08.212Z,72.01
2023-01-22T12:47:42.025Z,70.79
2023-01-22T12:50:18.815Z,70.46
2023-01-22T12:52:59.540Z,69.51
2023-01-22T12:55:34.840Z,68.15
2023-01-22T12:58:03.476Z,70.09
2023-01-22T13:00:35.502Z,70.43
2023-01-22T13:03:05.127Z,69.73
2023-01-22T13:05:42.485Z,68.40
2023-01-22T13:08:26.341Z,69.62
2023-01-22T13:10:55.563Z,69.39
2023-01-22T13:13:27.697Z,68.37
2023-01-22T13:15:58.649Z,67.94
2023-01-22T13:18:29.163Z,68.08
2023-01-22T13:21:02.798Z,68.15
2023-01-22T13:23:34.269Z,69.04
2023-01-22T13:26:02.960Z,68.64
2023-01-22T13:28:31.431Z,67.10
2023-01-22T13:31:01.982Z,67.65
2023-01-22T13:33:30.147Z,66.67
2023-01-22T13:35:59.678Z,66.39
2023-01-22T13:38:29.656Z,66.25
2023-01-22T13:41:00.948Z,66.51
2023-01-22T13:43:29.227Z,66.92
2023-01-22T13:45:58.151Z,65.76
2023-01-22T13:48:27.662Z,66.13
2023-01-22T13:50:58.573Z,67.06
2023-01-22T13:53:31.751Z,68.67
2023-01-22T13:56:01.487Z,67.78
2023-01-22T13:58:47.149Z,66.60
2023-01-22T14:01:28.067Z,66.80
2023-01-22T14:04:00.298Z,66.37
2023-01-22T14:06:28.758Z,66.43
2023-01-22T14:08:58.775Z,66.49
2023-01-22T14:11:39.649Z,66.53
2023-01-22T14:14:17.419Z,67.54
2023-01-22T14:16:45.391Z,66.66
2023-01-22T14:19:13.501Z,66.58
2023-01-22T14:21:41.221Z,65.92
2023-01-22T14:24:09.703Z,66.02
2023-01-22T14:26:38.909Z,67.17
2023-01-22T14:29:06.755Z,66.63
2023-01-22T14:31:34.478Z,66.94
2023-01-22T14:34:02.316Z,67.39
2023-01-22T14:36:30.167Z,67.41
2023-01-22T14:38:58.878Z,66.87
2023-01-22T14:41:26.729Z,66.39
2023-01-22T14:43:56.772Z,66.57
2023-01-22T14:46:24.600Z,67.19
2023-01-22T14:48:52.410Z,67.28
2023-01-22T14:51:20.198Z,66.98
2023-01-22T14:53:47.923Z,66.95
2023-01-22T14:56:15.678Z,66.88
2023-01-22T14:58:43.483Z,67.74
2023-01-22T15:01:20.544Z,68.23
2023-01-22T15:03:48.465Z,68.02
2023-01-22T15:06:16.250Z,68.34
2023-01-22T15:08:44.066Z,68.31
2023-01-22T15:11:11.947Z,68.22
2023-01-22T15:13:39.674Z,68.37
2023-01-22T15:16:09.144Z,69.01
2023-01-22T15:18:39.654Z,69.08
2023-01-22T15:21:08.172Z,69.23
2023-01-22T15:23:35.996Z,68.52
2023-01-22T15:26:06.003Z,69.80
2023-01-22T15:28:34.003Z,69.35
2023-01-22T15:31:07.575Z,68.47
2023-01-22T15:33:35.485Z,68.35
2023-01-22T15:36:05.898Z,68.47
2023-01-22T15:38:33.671Z,69.18
2023-01-22T15:41:07.050Z,70.55
2023-01-22T15:43:34.906Z,69.88
2023-01-22T15:46:02.805Z,71.17
2023-01-22T15:48:30.569Z,71.25
2023-01-22T15:51:09.040Z,70.54
2023-01-22T15:53:36.926Z,70.23
2023-01-22T15:56:06.389Z,70.34
2023-01-22T15:58:34.876Z,70.59
2023-01-22T16:01:03.010Z,70.71
2023-01-22T16:03:31.151Z,70.33
2023-01-22T16:06:10.524Z,70.49
2023-01-22T16:08:38.353Z,70.13
2023-01-22T16:11:06.822Z,70.69
2023-01-22T16:13:34.909Z,69.53
2023-01-22T16:16:04.784Z,70.56
2023-01-22T16:18:33.327Z,69.83
2023-01-22T16:21:01.905Z,69.89
2023-01-22T16:23:31.631Z,70.26
2023-01-22T16:26:01.122Z,69.48
2023-01-22T16:28:28.947Z,71.22
2023-01-22T16:30:56.852Z,70.63
2023-01-22T16:33:28.823Z,69.92
2023-01-22T16:36:00.264Z,70.25
2023-01-22T16:38:28.665Z,70.06
2023-01-22T16:41:08.869Z,70.62
2023-01-22T16:43:37.160Z,71.02
2023-01-22T16:46:05.246Z,72.55
2023-01-22T16:48:33.147Z,73.85
2023-01-22T16:51:01.027Z,74.90
2023-01-22T16:53:28.854Z,74.22
2023-01-22T16:55:58.056Z,74.21
2023-01-22T16:58:25.773Z,73.47
2023-01-22T17:00:53.650Z,72.79
2023-01-22T17:03:21.369Z,73.23
2023-01-22T17:05:49.937Z,74.00
2023-01-22T17:08:17.640Z,73.20
2023-01-22T17:10:45.362Z,74.79
2023-01-22T17:13:14.521Z,76.35
2023-01-22T17:15:43.707Z,75.74
2023-01-22T17:18:11.460Z,72.90
2023-01-22T17:20:39.313Z,73.93
2023-01-22T17:23:07.427Z,74.54
2023-01-22T17:25:35.205Z,75.44
2023-01-22T17:28:02.984Z,76.50
2023-01-22T17:30:32.126Z,76.59
2023-01-22T17:32:59.866Z,78.86
2023-01-22T17:35:27.671Z,76.25
2023-01-22T17:37:55.397Z,74.87
2023-01-22T17:40:23.095Z,73.77
2023-01-22T17:42:50.816Z,72.49
2023-01-22T17:45:19.021Z,73.53
2023-01-22T17:47:48.369Z,74.06
2023-01-22T17:50:16.945Z,74.43
2023-01-22T17:52:44.772Z,74.85
2023-01-22T17:55:12.658Z,73.99
2023-01-22T17:57:41.454Z,76.44
2023-01-22T18:00:11.095Z,76.51
2023-01-22T18:02:38.932Z,76.19
2023-01-22T18:05:10.399Z,75.99
2023-01-22T18:07:38.301Z,76.23
2023-01-22T18:10:06.593Z,77.88
2023-01-22T18:12:34.434Z,77.74
2023-01-22T18:15:02.184Z,77.31
2023-01-22T18:17:29.936Z,78.61
2023-01-22T18:19:57.838Z,77.52
2023-01-22T18:22:26.969Z,76.96
2023-01-22T18:24:54.826Z,77.09
2023-01-22T18:27:22.574Z,77.06
2023-01-22T18:29:50.411Z,76.96
2023-01-22T18:32:18.644Z,76.58
2023-01-22T18:34:46.611Z,77.33
2023-01-22T18:37:14.327Z,79.10
2023-01-22T18:39:43.574Z,79.11
2023-01-22T18:42:11.378Z,79.52
2023-01-22T18:44:39.853Z,78.38
2023-01-22T18:47:11.068Z,79.79
2023-01-22T18:49:38.999Z,79.19
2023-01-22T18:52:06.819Z,80.15
2023-01-22T18:54:34.561Z,82.47
2023-01-22T18:57:03.652Z,81.59
2023-01-22T18:59:31.535Z,80.39
2023-01-22T19:02:00.033Z,79.71
2023-01-22T19:04:28.985Z,78.55
2023-01-22T19:06:57.278Z,80.55
2023-01-22T19:09:26.837Z,80.56
2023-01-22T19:11:55.608Z,80.53
2023-01-22T19:14:25.177Z,79.10
2023-01-22T19:16:54.211Z,79.38
2023-01-22T19:19:22.901Z,79.02
2023-01-22T19:21:54.725Z,79.51
2023-01-22T19:24:24.920Z,80.66
2023-01-22T19:26:54.700Z,80.18
2023-01-22T19:29:25.317Z,80.60
2023-01-22T19:31:54.473Z,80.92
2023-01-22T19:34:24.688Z,80.51
2023-01-22T19:36:54.389Z,79.74
2023-01-22T19:39:22.461Z,79.65
2023-01-22T19:41:50.305Z,79.07
2023-01-22T19:44:18.438Z,81.91
2023-01-22T19:46:47.852Z,80.91
2023-01-22T19:49:15.637Z,81.64
2023-01-22T19:51:43.561Z,79.84
2023-01-22T19:54:12.018Z,80.55
2023-01-22T19:56:42.327Z,82.07
2023-01-22T19:59:12.964Z,81.96
2023-01-22T20:01:40.792Z,81.00
2023-01-22T20:04:14.343Z,80.69
2023-01-22T20:06:45.163Z,80.45
2023-01-22T20:09:13.268Z,81.05
2023-01-22T20:11:41.179Z,81.54
2023-01-22T20:14:08.947Z,81.55
2023-01-22T20:16:36.770Z,80.60
2023-01-22T20:19:04.886Z,82.55
2023-01-22T20:21:34.133Z,81.50
2023-01-22T20:24:01.917Z,81.18
2023-01-22T20:26:29.631Z,80.99
2023-01-22T20:28:57.384Z,80.77
2023-01-22T20:31:25.503Z,81.08
2023-01-22T20:33:55.535Z,80.64
2023-01-22T20:36:24.508Z,80.71
2023-01-22T20:38:54.559Z,79.07
2023-01-22T20:41:23.940Z,81.04
2023-01-22T20:43:51.782Z,80.79
2023-01-22T20:46:21.376Z,80.74
2023-01-22T20:48:50.369Z,80.65
2023-01-22T20:51:20.844Z,81.72
2023-01-22T20:53:50.506Z,80.87
2023-01-22T20:56:22.626Z,81.08
2023-01-22T20:58:55.285Z,79.69
2023-01-22T21:01:23.085Z,80.71
2023-01-22T21:03:50.960Z,80.97
2023-01-22T21:06:20.862Z,82.29
2023-01-22T21:08:51.352Z,80.82
2023-01-22T21:11:22.067Z,80.48
2023-01-22T21:13:51.643Z,81.04
2023-01-22T21:16:23.067Z,79.54
2023-01-22T21:18:50.906Z,79.96
2023-01-22T21:21:20.077Z,80.44
2023-01-22T21:23:48.936Z,79.85
2023-01-22T21:26:19.171Z,79.37
2023-01-22T21:28:49.283Z,81.31
2023-01-22T21:31:20.063Z,82.65
2023-01-22T21:33:49.449Z,82.19
2023-01-22T21:36:18.453Z,83.25
2023-01-22T21:38:47.683Z,83.19
2023-01-22T21:41:18.251Z,83.35
2023-01-22T21:44:06.068Z,82.75
2023-01-22T21:46:37.256Z,81.99
2023-01-22T21:49:16.284Z,82.42
2023-01-22T21:51:46.293Z,82.27
2023-01-22T21:54:15.186Z,81.46
2023-01-22T21:56:43.102Z,82.41
2023-01-22T21:59:12.561Z,81.10
2023-01-22T22:01:40.691Z,83.87
2023-01-22T22:04:09.774Z,83.67
2023-01-22T22:06:38.034Z,81.98
2023-01-22T22:09:07.921Z,81.73
2023-01-22T22:11:35.771Z,81.89
2023-01-22T22:14:05.662Z,80.74
2023-01-22T22:16:35.207Z,84.15
2023-01-22T22:19:03.007Z,83.89
2023-01-22T22:21:31.774Z,82.62
2023-01-22T22:23:59.546Z,82.69
2023-01-22T22:26:27.553Z,82.35
2023-01-22T22:28:55.718Z,81.90
2023-01-22T22:31:24.052Z,81.23
2023-01-22T22:33:55.585Z,82.91
2023-01-22T22:36:25.208Z,82.67
2023-01-22T22:38:53.197Z,82.02
2023-01-22T22:41:22.758Z,83.07
2023-01-22T22:43:52.623Z,84.15
2023-01-22T22:46:22.900Z,83.50
2023-01-22T22:48:53.278Z,82.44
2023-01-22T22:51:23.573Z,82.26
2023-01-22T22:53:54.360Z,83.58
2023-01-22T22:56:22.485Z,83.22
2023-01-22T22:58:50.257Z,82.71
2023-01-22T23:01:19.831Z,82.91
2023-01-22T23:03:47.844Z,82.78
2023-01-22T23:06:21.253Z,82.78
2023-01-22T23:08:52.370Z,82.97
2023-01-22T23:11:22.568Z,83.37
2023-01-22T23:13:50.540Z,83.69
2023-01-22T23:16:20.659Z,83.68
2023-01-22T23:18:50.001Z,85.04
2023-01-22T23:21:21.193Z,84.89
2023-01-22T23:23:49.119Z,83.92
2023-01-22T23:26:19.561Z,84.96
2023-01-22T23:28:48.474Z,84.74
2023-01-22T23:31:17.976Z,84.62
2023-01-22T23:33:45.741Z,85.62
2023-01-22T23:36:15.521Z,84.31
2023-01-22T23:38:45.796Z,84.81
2023-01-22T23:41:16.767Z,85.00
2023-01-22T23:43:44.826Z,84.97
2023-01-22T23:46:15.256Z,85.45
2023-01-22T23:48:43.509Z,84.38
2023-01-22T23:51:13.354Z,84.48
2023-01-22T23:53:43.059Z,84.87
2023-01-22T23:56:13.347Z,85.05
2023-01-22T23:58:41.817Z,84.86
